createdAt,value
2018-04-19T00:00:19.514Z,9.20
2018-04-19T00:02:47.023Z,8.97
2018-04-19T00:05:14.499Z,8.20
2018-04-19T00:07:41.982Z,7.80
2018-04-19T00:10:09.456Z,7.10
2018-04-19T00:12:36.954Z,8.43
2018-04-19T00:15:04.430Z,7.70
2018-04-19T00:17:32.030Z,7.67
2018-04-19T00:19:59.530Z,8.93
2018-04-19T00:22:27.006Z,7.87
2018-04-19T00:24:54.521Z,6.73
2018-04-19T00:27:22.015Z,8.63
2018-04-19T00:29:49.605Z,7.00
2018-04-19T00:32:17.856Z,7.87
2018-04-19T00:34:45.429Z,7.17
2018-04-19T00:37:12.925Z,8.57
2018-04-19T00:39:40.529Z,8.20
2018-04-19T00:42:08.048Z,7.67
2018-04-19T00:44:35.557Z,9.30
2018-04-19T00:47:03.039Z,7.80
2018-04-19T00:49:30.513Z,8.10
2018-04-19T00:51:58.056Z,9.50
2018-04-19T00:54:25.537Z,8.73
2018-04-19T00:56:53.013Z,8.53
2018-04-19T00:59:20.508Z,8.10
2018-04-19T01:01:48.017Z,8.53
2018-04-19T01:04:15.509Z,9.40
2018-04-19T01:06:42.973Z,9.00
2018-04-19T01:09:10.460Z,8.70
2018-04-19T01:11:37.924Z,9.73
2018-04-19T01:14:05.411Z,10.50
2018-04-19T01:16:32.901Z,9.00
2018-04-19T01:19:00.375Z,8.37
2018-04-19T01:21:27.872Z,8.47
2018-04-19T01:23:55.364Z,8.27
2018-04-19T01:26:22.845Z,10.17
2018-04-19T01:28:51.166Z,11.30
2018-04-19T01:31:18.826Z,9.33
2018-04-19T01:33:46.310Z,10.43
2018-04-19T01:36:25.913Z,8.50
2018-04-19T01:38:53.467Z,10.17
2018-04-19T01:41:20.969Z,10.83
2018-04-19T01:43:48.465Z,7.03
2018-04-19T01:46:15.964Z,8.93
2018-04-19T01:48:43.513Z,8.83
2018-04-19T01:51:11.013Z,8.63
2018-04-19T01:53:38.501Z,8.40
2018-04-19T01:56:05.962Z,8.73
2018-04-19T01:58:33.446Z,10.07
2018-04-19T02:01:00.953Z,7.50
2018-04-19T02:03:28.472Z,9.57
2018-04-19T02:05:56.053Z,9.23
2018-04-19T02:08:23.536Z,9.90
2018-04-19T02:10:51.008Z,8.00
2018-04-19T02:13:18.481Z,8.97
2018-04-19T02:15:45.985Z,10.27
2018-04-19T02:18:13.534Z,8.60
2018-04-19T02:20:41.127Z,8.93
2018-04-19T02:23:08.607Z,9.23
2018-04-19T02:25:36.106Z,9.27
2018-04-19T02:28:03.598Z,10.57
2018-04-19T02:30:31.074Z,10.30
2018-04-19T02:32:58.579Z,10.00
2018-04-19T02:35:26.098Z,11.17
2018-04-19T02:37:53.654Z,11.57
2018-04-19T02:40:21.194Z,11.53
2018-04-19T02:42:48.700Z,11.00
2018-04-19T02:45:16.198Z,12.70
2018-04-19T02:47:43.661Z,9.27
2018-04-19T02:50:11.186Z,11.30
2018-04-19T02:52:38.689Z,8.90
2018-04-19T02:55:06.204Z,11.13
2018-04-19T02:57:33.703Z,10.53
2018-04-19T03:00:01.211Z,10.50
2018-04-19T03:02:28.712Z,12.13
2018-04-19T03:04:56.183Z,10.83
2018-04-19T03:07:23.686Z,10.70
2018-04-19T03:09:51.190Z,9.37
2018-04-19T03:12:18.657Z,10.90
2018-04-19T03:14:46.144Z,11.57
2018-04-19T03:17:13.639Z,11.10
2018-04-19T03:19:41.119Z,10.67
2018-04-19T03:22:08.625Z,11.37
2018-04-19T03:24:36.338Z,9.90
2018-04-19T03:27:04.454Z,8.97
2018-04-19T03:29:31.991Z,11.70
2018-04-19T03:31:59.467Z,12.13
2018-04-19T03:34:26.967Z,12.23
2018-04-19T03:36:54.456Z,12.30
2018-04-19T03:39:21.937Z,12.60
2018-04-19T03:41:49.445Z,11.00
2018-04-19T03:44:16.928Z,12.53
2018-04-19T03:46:44.409Z,11.93
2018-04-19T03:49:11.935Z,13.13
2018-04-19T03:51:39.465Z,13.43
2018-04-19T03:54:06.956Z,13.20
2018-04-19T03:56:34.463Z,11.13
2018-04-19T03:59:01.964Z,9.97
2018-04-19T04:01:29.458Z,12.67
2018-04-19T04:03:56.941Z,10.93
2018-04-19T04:06:24.549Z,13.83
2018-04-19T04:08:52.058Z,12.90
2018-04-19T04:11:19.554Z,11.20
2018-04-19T04:13:47.059Z,14.17
2018-04-19T04:16:26.395Z,14.43
2018-04-19T04:19:05.805Z,14.73
2018-04-19T04:21:33.328Z,15.27
2018-04-19T04:24:00.839Z,13.00
2018-04-19T04:26:28.323Z,14.47
2018-04-19T04:28:55.792Z,15.73
2018-04-19T04:31:23.291Z,15.33
2018-04-19T04:33:50.888Z,16.27
2018-04-19T04:36:18.378Z,14.30
2018-04-19T04:38:45.861Z,14.57
2018-04-19T04:41:13.367Z,11.90
2018-04-19T04:43:40.909Z,11.73
2018-04-19T04:46:08.357Z,10.93
2018-04-19T04:48:35.970Z,13.70
2018-04-19T04:51:03.456Z,14.30
2018-04-19T04:53:30.941Z,14.37
2018-04-19T04:55:58.443Z,14.73
2018-04-19T04:58:25.924Z,12.63
2018-04-19T05:00:53.400Z,13.97
2018-04-19T05:03:20.888Z,14.43
2018-04-19T05:05:48.384Z,14.43
2018-04-19T05:08:20.434Z,12.90
2018-04-19T05:10:47.920Z,12.63
2018-04-19T05:13:15.533Z,12.77
2018-04-19T05:15:43.124Z,13.77
2018-04-19T05:18:10.616Z,14.07
2018-04-19T05:20:38.140Z,14.53
2018-04-19T05:23:05.634Z,13.53
2018-04-19T05:25:33.158Z,14.93
2018-04-19T05:28:00.678Z,12.93
2018-04-19T05:30:28.236Z,13.57
2018-04-19T05:32:55.801Z,12.50
2018-04-19T05:37:57.153Z,13.67
2018-04-19T05:40:24.630Z,13.70
2018-04-19T05:42:52.141Z,17.97
2018-04-19T05:45:19.640Z,14.27
2018-04-19T05:47:47.169Z,12.73
2018-04-19T05:50:14.656Z,14.20
2018-04-19T05:52:42.207Z,13.73
2018-04-19T05:55:09.761Z,13.53
2018-04-19T05:57:37.265Z,13.53
2018-04-19T06:00:04.777Z,13.50
2018-04-19T06:02:32.253Z,13.83
2018-04-19T06:04:59.734Z,14.93
2018-04-19T06:07:27.350Z,15.63
2018-04-19T06:09:54.845Z,14.27
2018-04-19T06:12:22.301Z,17.20
2018-04-19T06:14:49.808Z,14.20
2018-04-19T06:17:17.298Z,14.00
2018-04-19T06:19:44.795Z,12.10
2018-04-19T06:22:12.328Z,12.10
2018-04-19T06:24:39.878Z,11.80
2018-04-19T06:27:07.424Z,13.70
2018-04-19T06:29:34.969Z,14.23
2018-04-19T06:32:02.433Z,13.40
2018-04-19T06:34:29.912Z,14.77
2018-04-19T06:36:57.397Z,13.70
2018-04-19T06:39:24.880Z,11.43
2018-04-19T06:41:52.462Z,13.33
2018-04-19T06:44:19.983Z,12.73
2018-04-19T06:46:47.503Z,12.63
2018-04-19T06:49:15.011Z,9.90
2018-04-19T06:51:42.625Z,10.83
2018-04-19T06:54:10.127Z,9.30
2018-04-19T06:56:37.602Z,9.73
2018-04-19T06:59:05.074Z,9.90
2018-04-19T07:01:32.555Z,11.07
2018-04-19T07:04:00.045Z,11.83
2018-04-19T07:06:27.740Z,10.37
2018-04-19T07:08:55.226Z,9.60
2018-04-19T07:11:22.712Z,8.50
2018-04-19T07:13:50.194Z,9.17
2018-04-19T07:16:17.684Z,9.20
2018-04-19T07:18:45.168Z,8.23
2018-04-19T07:21:12.636Z,10.03
2018-04-19T07:23:40.112Z,8.77
2018-04-19T07:26:07.587Z,8.47
2018-04-19T07:28:35.123Z,8.93
2018-04-19T07:31:02.648Z,8.87
2018-04-19T07:33:30.202Z,10.67
2018-04-19T07:35:57.657Z,9.00
2018-04-19T07:38:25.163Z,7.70
2018-04-19T07:40:52.695Z,8.33
2018-04-19T07:43:20.218Z,8.77
2018-04-19T07:45:47.702Z,9.00
2018-04-19T07:48:15.276Z,9.50
2018-04-19T07:50:43.076Z,9.33
2018-04-19T07:53:10.547Z,8.93
2018-04-19T07:55:38.141Z,7.97
2018-04-19T07:58:05.660Z,7.83
2018-04-19T08:00:33.124Z,7.30
2018-04-19T08:03:00.619Z,7.67
2018-04-19T08:05:28.170Z,7.43
2018-04-19T08:07:55.617Z,7.83
2018-04-19T08:10:23.107Z,7.20
2018-04-19T08:12:50.593Z,6.90
2018-04-19T08:15:18.064Z,6.77
2018-04-19T08:17:45.553Z,6.63
2018-04-19T08:20:13.036Z,7.17
2018-04-19T08:22:40.510Z,6.60
2018-04-19T08:25:08.013Z,6.43
2018-04-19T08:27:35.482Z,6.90
2018-04-19T08:30:02.957Z,6.17
2018-04-19T08:32:30.427Z,5.87
2018-04-19T08:34:57.958Z,5.90
2018-04-19T08:37:25.410Z,6.20
2018-04-19T08:39:52.943Z,5.93
2018-04-19T08:42:20.442Z,6.57
2018-04-19T08:44:47.912Z,5.60
2018-04-19T08:47:15.397Z,5.83
2018-04-19T08:49:42.887Z,5.80
2018-04-19T08:52:10.380Z,5.83
2018-04-19T08:54:37.893Z,7.57
2018-04-19T08:57:05.369Z,5.90
2018-04-19T08:59:32.859Z,5.80
2018-04-19T09:02:00.313Z,5.67
2018-04-19T09:04:27.797Z,6.37
2018-04-19T09:06:55.283Z,5.47
2018-04-19T09:09:22.769Z,5.70
2018-04-19T09:11:50.256Z,6.13
2018-04-19T09:14:17.790Z,5.80
2018-04-19T09:16:45.257Z,5.50
2018-04-19T09:19:12.751Z,5.40
2018-04-19T09:21:40.251Z,6.00
2018-04-19T09:24:07.732Z,6.33
2018-04-19T09:26:35.372Z,7.00
2018-04-19T09:29:02.936Z,5.07
2018-04-19T09:31:30.391Z,5.70
2018-04-19T09:33:57.871Z,5.17
2018-04-19T09:36:25.359Z,5.73
2018-04-19T09:38:52.818Z,5.60
2018-04-19T09:41:20.304Z,5.00
2018-04-19T09:43:47.775Z,5.23
2018-04-19T09:46:15.230Z,5.33
2018-04-19T09:48:42.695Z,5.30
2018-04-19T09:51:10.155Z,5.27
2018-04-19T09:53:37.644Z,5.03
2018-04-19T09:56:05.114Z,5.43
2018-04-19T09:58:32.665Z,4.40
2018-04-19T10:01:05.950Z,5.23
2018-04-19T10:03:39.120Z,4.77
2018-04-19T10:06:08.430Z,5.40
2018-04-19T10:08:35.907Z,5.30
2018-04-19T10:11:03.420Z,5.23
2018-04-19T10:13:30.894Z,5.33
2018-04-19T10:15:58.439Z,4.73
2018-04-19T10:18:25.892Z,5.57
2018-04-19T10:20:53.371Z,4.87
2018-04-19T10:23:20.823Z,5.20
2018-04-19T10:25:48.332Z,4.53
2018-04-19T10:28:15.818Z,5.10
2018-04-19T10:30:43.378Z,5.10
2018-04-19T10:33:10.885Z,5.37
2018-04-19T10:35:38.346Z,5.67
2018-04-19T10:38:05.832Z,4.53
2018-04-19T10:40:33.360Z,4.83
2018-04-19T10:43:00.857Z,4.30
2018-04-19T10:45:28.326Z,4.90
2018-04-19T10:47:55.804Z,4.93
2018-04-19T10:50:23.260Z,4.57
2018-04-19T10:52:50.774Z,4.87
2018-04-19T10:55:18.238Z,4.80
2018-04-19T10:57:45.717Z,4.80
2018-04-19T11:00:13.209Z,4.73
2018-04-19T11:02:41.733Z,4.60
2018-04-19T11:05:09.212Z,4.13
2018-04-19T11:07:36.897Z,4.07
2018-04-19T11:10:04.383Z,4.60
2018-04-19T11:12:31.865Z,5.47
2018-04-19T11:14:59.348Z,4.77
2018-04-19T11:17:26.836Z,5.43
2018-04-19T11:19:54.401Z,4.53
2018-04-19T11:22:21.883Z,4.97
2018-04-19T11:24:49.488Z,4.90
2018-04-19T11:27:16.990Z,5.23
2018-04-19T11:29:44.491Z,5.70
2018-04-19T11:32:12.002Z,6.50
2018-04-19T11:34:39.545Z,5.00
2018-04-19T11:37:07.031Z,5.37
2018-04-19T11:39:35.576Z,6.12
2018-04-19T11:42:03.162Z,5.12
2018-04-19T11:44:30.636Z,7.68
2018-04-19T11:46:58.117Z,5.95
2018-04-19T11:49:25.603Z,5.15
2018-04-19T11:51:53.062Z,8.82
2018-04-19T11:54:20.532Z,9.10
2018-04-19T11:56:48.014Z,6.82
2018-04-19T11:59:15.511Z,5.32
2018-04-19T12:01:42.985Z,6.15
2018-04-19T12:04:10.470Z,6.35
2018-04-19T12:06:37.930Z,5.72
2018-04-19T12:09:06.264Z,4.97
2018-04-19T12:11:33.744Z,4.90
2018-04-19T12:14:01.222Z,5.40
2018-04-19T12:16:28.831Z,4.85
2018-04-19T12:18:56.326Z,5.15
2018-04-19T12:21:23.795Z,4.50
2018-04-19T12:23:51.272Z,4.37
2018-04-19T12:26:18.758Z,4.57
2018-04-19T12:28:46.223Z,4.62
2018-04-19T12:31:13.695Z,4.62
2018-04-19T12:33:41.182Z,5.28
2018-04-19T12:36:08.636Z,5.35
2018-04-19T12:38:36.161Z,4.37
2018-04-19T12:41:03.638Z,4.50
2018-04-19T12:43:31.161Z,4.40
2018-04-19T12:45:58.638Z,3.92
2018-04-19T12:48:26.112Z,5.00
2018-04-19T12:50:53.679Z,4.15
2018-04-19T12:53:21.149Z,4.05
2018-04-19T12:55:48.605Z,4.50
2018-04-19T12:58:16.091Z,4.90
2018-04-19T13:00:43.576Z,4.20
2018-04-19T13:03:11.072Z,4.00
2018-04-19T13:05:38.560Z,4.68
2018-04-19T13:08:06.042Z,4.53
2018-04-19T13:10:33.649Z,4.40
2018-04-19T13:13:01.216Z,4.12
2018-04-19T13:15:28.691Z,5.15
2018-04-19T13:17:56.184Z,4.12
2018-04-19T13:20:23.724Z,4.30
2018-04-19T13:22:51.342Z,4.40
2018-04-19T13:25:18.815Z,4.50
2018-04-19T13:27:46.305Z,5.05
2018-04-19T13:30:13.749Z,4.35
2018-04-19T13:32:41.245Z,4.43
2018-04-19T13:35:08.741Z,4.32
2018-04-19T13:37:36.452Z,4.20
2018-04-19T13:40:03.931Z,4.07
2018-04-19T13:42:31.410Z,3.87
2018-04-19T13:44:58.888Z,4.20
2018-04-19T13:47:26.404Z,3.78
2018-04-19T13:49:53.866Z,3.97
2018-04-19T13:52:21.336Z,3.90
2018-04-19T13:54:48.823Z,3.87
2018-04-19T13:57:16.296Z,3.60
2018-04-19T13:59:43.774Z,3.92
2018-04-19T14:02:11.318Z,4.40
2018-04-19T14:04:38.732Z,4.28
2018-04-19T14:07:06.197Z,3.85
2018-04-19T14:09:33.674Z,3.85
2018-04-19T14:12:01.156Z,4.07
2018-04-19T14:14:28.630Z,4.50
2018-04-19T14:16:56.145Z,4.35
2018-04-19T14:19:23.749Z,3.90
2018-04-19T14:21:51.296Z,3.95
2018-04-19T14:24:18.791Z,4.00
2018-04-19T14:26:46.324Z,3.80
2018-04-19T14:29:13.873Z,3.62
2018-04-19T14:31:41.331Z,3.12
2018-04-19T14:34:08.888Z,3.45
2018-04-19T14:36:42.243Z,3.70
2018-04-19T14:39:11.710Z,3.70
2018-04-19T14:41:46.961Z,3.60
2018-04-19T14:44:21.917Z,3.35
2018-04-19T14:46:51.226Z,3.45
2018-04-19T14:49:25.136Z,3.70
2018-04-19T14:51:57.226Z,3.78
2018-04-19T14:54:32.416Z,5.20
2018-04-19T14:57:00.702Z,3.90
2018-04-19T14:59:28.192Z,3.70
2018-04-19T15:01:55.749Z,4.28
2018-04-19T15:04:23.236Z,4.20
2018-04-19T15:06:50.725Z,3.97
2018-04-19T15:09:18.236Z,3.33
2018-04-19T15:11:45.699Z,4.03
2018-04-19T15:14:13.201Z,4.45
2018-04-19T15:16:40.738Z,4.00
2018-04-19T15:19:08.225Z,4.22
2018-04-19T15:21:35.860Z,4.75
2018-04-19T15:24:03.348Z,4.35
2018-04-19T15:26:30.829Z,4.10
2018-04-19T15:28:58.317Z,3.70
2018-04-19T15:31:25.779Z,4.00
2018-04-19T15:33:53.233Z,3.40
2018-04-19T15:36:20.721Z,4.30
2018-04-19T15:38:48.195Z,3.70
2018-04-19T15:41:15.699Z,3.83
2018-04-19T15:43:43.211Z,3.30
2018-04-19T15:46:10.726Z,3.28
2018-04-19T15:48:38.212Z,3.33
2018-04-19T15:51:05.766Z,3.83
2018-04-19T15:53:33.236Z,4.25
2018-04-19T15:56:00.751Z,4.40
2018-04-19T15:58:28.263Z,4.30
2018-04-19T16:00:55.723Z,4.30
2018-04-19T16:03:23.204Z,4.25
2018-04-19T16:05:50.669Z,3.90
2018-04-19T16:08:18.147Z,4.60
2018-04-19T16:10:45.635Z,4.47
2018-04-19T16:13:13.109Z,4.18
2018-04-19T16:15:40.608Z,3.83
2018-04-19T16:18:08.087Z,4.32
2018-04-19T16:20:35.585Z,3.90
2018-04-19T16:23:03.093Z,4.18
2018-04-19T16:25:30.650Z,3.60
2018-04-19T16:27:58.100Z,3.90
2018-04-19T16:30:25.609Z,3.58
2018-04-19T16:32:53.083Z,3.17
2018-04-19T16:35:20.664Z,3.47
2018-04-19T16:37:48.147Z,3.40
2018-04-19T16:40:15.768Z,3.60
2018-04-19T16:42:43.219Z,3.75
2018-04-19T16:45:10.705Z,3.42
2018-04-19T16:47:38.203Z,3.28
2018-04-19T16:50:05.685Z,3.67
2018-04-19T16:52:33.202Z,3.42
2018-04-19T16:55:00.701Z,3.15
2018-04-19T16:57:28.179Z,3.00
2018-04-19T16:59:55.726Z,3.05
2018-04-19T17:02:23.199Z,3.47
2018-04-19T17:04:50.705Z,3.30
2018-04-19T17:07:18.178Z,3.53
2018-04-19T17:09:45.642Z,3.45
2018-04-19T17:12:13.122Z,3.30
2018-04-19T17:14:40.624Z,3.60
2018-04-19T17:17:08.117Z,3.25
2018-04-19T17:19:35.633Z,3.12
2018-04-19T17:22:03.120Z,3.15
2018-04-19T17:24:30.648Z,3.30
2018-04-19T17:26:58.120Z,3.20
2018-04-19T17:29:25.666Z,3.37
2018-04-19T17:31:53.143Z,3.47
2018-04-19T17:34:20.646Z,3.72
2018-04-19T17:36:48.287Z,3.45
2018-04-19T17:39:15.884Z,3.00
2018-04-19T17:41:43.358Z,3.60
2018-04-19T17:44:16.704Z,3.78
2018-04-19T17:46:44.180Z,3.40
2018-04-19T17:49:11.721Z,3.83
2018-04-19T17:51:42.425Z,3.20
2018-04-19T17:54:10.849Z,3.37
2018-04-19T17:56:38.433Z,3.73
2018-04-19T17:59:05.935Z,3.50
2018-04-19T18:01:33.422Z,4.10
2018-04-19T18:04:00.996Z,3.53
2018-04-19T18:06:30.024Z,3.53
2018-04-19T18:08:57.517Z,4.30
2018-04-19T18:11:24.998Z,4.20
2018-04-19T18:13:52.498Z,3.87
2018-04-19T18:16:20.010Z,3.47
2018-04-19T18:18:47.517Z,4.13
2018-04-19T18:21:14.980Z,4.30
2018-04-19T18:23:42.453Z,4.30
2018-04-19T18:26:10.010Z,4.40
2018-04-19T18:28:37.550Z,4.30
2018-04-19T18:31:05.064Z,3.70
2018-04-19T18:33:32.820Z,4.00
2018-04-19T18:36:03.525Z,3.50
2018-04-19T18:38:31.049Z,3.60
2018-04-19T18:40:58.606Z,3.80
2018-04-19T18:43:26.671Z,3.90
2018-04-19T18:45:54.177Z,4.27
2018-04-19T18:48:21.646Z,4.20
2018-04-19T18:50:51.278Z,4.53
2018-04-19T18:53:18.799Z,4.60
2018-04-19T18:55:46.738Z,4.20
2018-04-19T18:58:14.742Z,4.50
2018-04-19T19:00:42.209Z,4.30
2018-04-19T19:03:15.449Z,4.53
2018-04-19T19:05:43.129Z,4.53
2018-04-19T19:08:10.629Z,4.90
2018-04-19T19:10:38.143Z,4.97
2018-04-19T19:13:05.782Z,4.73
2018-04-19T19:19:03.465Z,4.37
2018-04-19T19:21:30.963Z,7.30
2018-04-19T19:23:58.500Z,5.10
2018-04-19T19:26:25.997Z,5.17
2018-04-19T19:28:53.539Z,4.83
2018-04-19T19:31:21.232Z,4.57
2018-04-19T19:33:48.778Z,4.73
2018-04-19T19:36:16.245Z,4.60
2018-04-19T19:38:43.709Z,5.10
2018-04-19T19:41:11.591Z,4.73
2018-04-19T19:43:39.108Z,5.23
2018-04-19T19:46:06.615Z,4.97
2018-04-19T19:48:34.170Z,5.00
2018-04-19T19:51:01.678Z,5.13
2018-04-19T19:53:29.297Z,5.57
2018-04-19T19:55:57.046Z,8.30
2018-04-19T19:58:26.656Z,8.87
2018-04-19T20:00:55.700Z,8.80
2018-04-19T20:03:23.258Z,11.73
2018-04-19T20:05:50.970Z,8.30
2018-04-19T20:08:18.446Z,9.03
2018-04-19T20:10:47.970Z,11.03
2018-04-19T20:13:15.486Z,14.13
2018-04-19T20:15:43.124Z,10.40
2018-04-19T20:18:10.758Z,9.60
2018-04-19T20:20:38.430Z,11.53
2018-04-19T20:23:05.928Z,13.07
2018-04-19T20:25:33.478Z,17.07
2018-04-19T20:28:01.174Z,12.47
2018-04-19T20:30:28.669Z,14.17
2018-04-19T20:32:56.311Z,15.30
2018-04-19T20:35:23.837Z,13.97
2018-04-19T20:37:51.328Z,9.43
2018-04-19T20:40:18.811Z,14.00
2018-04-19T20:42:46.479Z,12.57
2018-04-19T20:45:14.063Z,13.43
2018-04-19T20:47:41.547Z,9.30
2018-04-19T20:50:09.121Z,11.60
2018-04-19T20:52:37.130Z,11.23
2018-04-19T20:55:04.548Z,11.13
2018-04-19T20:57:32.114Z,13.30
2018-04-19T21:00:00.680Z,13.00
2018-04-19T21:02:28.245Z,12.87
2018-04-19T21:04:55.858Z,11.83
2018-04-19T21:07:23.333Z,11.20
2018-04-19T21:09:51.010Z,9.00
2018-04-19T21:12:18.739Z,10.03
2018-04-19T21:14:47.134Z,7.23
2018-04-19T21:17:15.259Z,8.10
2018-04-19T21:19:42.760Z,10.23
2018-04-19T21:22:11.944Z,8.90
2018-04-19T21:24:39.448Z,9.00
2018-04-19T21:27:07.940Z,7.43
2018-04-19T21:29:35.439Z,7.80
2018-04-19T21:32:02.912Z,7.17
2018-04-19T21:34:31.383Z,6.40
2018-04-19T21:36:58.916Z,7.93
2018-04-19T21:39:26.384Z,6.97
2018-04-19T21:41:53.904Z,6.87
2018-04-19T21:44:21.418Z,5.57
2018-04-19T21:46:49.094Z,6.47
2018-04-19T21:49:16.593Z,6.10
2018-04-19T21:51:44.207Z,6.50
2018-04-19T21:54:11.723Z,6.23
2018-04-19T21:56:39.184Z,5.97
2018-04-19T21:59:06.706Z,6.67
2018-04-19T22:01:34.199Z,6.07
2018-04-19T22:04:01.682Z,5.63
2018-04-19T22:06:29.197Z,5.30
2018-04-19T22:08:56.699Z,5.77
2018-04-19T22:11:24.190Z,4.90
2018-04-19T22:13:51.670Z,6.00
2018-04-19T22:16:19.158Z,5.13
2018-04-19T22:18:46.657Z,5.73
2018-04-19T22:21:14.122Z,5.53
2018-04-19T22:23:41.593Z,5.10
2018-04-19T22:26:09.080Z,5.67
2018-04-19T22:28:36.629Z,5.57
2018-04-19T22:31:04.106Z,5.30
2018-04-19T22:33:31.583Z,5.17
2018-04-19T22:35:59.074Z,5.03
2018-04-19T22:38:26.577Z,5.30
2018-04-19T22:40:54.051Z,5.63
2018-04-19T22:43:21.540Z,4.87
2018-04-19T22:45:49.152Z,5.37
2018-04-19T22:48:16.617Z,5.47
2018-04-19T22:50:44.070Z,4.97
2018-04-19T22:53:11.556Z,4.97
2018-04-19T22:55:39.128Z,4.53
2018-04-19T22:58:06.601Z,5.13
2018-04-19T23:00:34.169Z,4.80
2018-04-19T23:03:01.662Z,5.00
2018-04-19T23:05:29.176Z,4.93
2018-04-19T23:07:56.652Z,5.00
2018-04-19T23:10:24.110Z,5.30
2018-04-19T23:12:51.587Z,4.97
2018-04-19T23:15:19.581Z,4.97
2018-04-19T23:17:47.069Z,5.37
2018-04-19T23:20:14.589Z,4.63
2018-04-19T23:22:42.086Z,4.57
2018-04-19T23:25:09.637Z,5.13
2018-04-19T23:27:37.095Z,4.57
2018-04-19T23:30:04.594Z,4.73
2018-04-19T23:32:32.086Z,4.50
2018-04-19T23:34:59.558Z,4.93
2018-04-19T23:37:27.069Z,4.70
2018-04-19T23:39:54.533Z,4.77
2018-04-19T23:42:22.001Z,4.47
2018-04-19T23:44:49.498Z,4.50
2018-04-19T23:47:16.995Z,4.80
2018-04-19T23:49:44.535Z,4.47
2018-04-19T23:52:12.003Z,4.90
2018-04-19T23:54:39.569Z,5.20
2018-04-19T23:57:07.044Z,5.17
2018-04-19T23:59:34.676Z,5.33
